sensor_id;sensor_type;location;lat;lon;timestamp;temperature;humidity
77727;SHT30;66894;51.570;7.000;2023-02-28T16:19:58;19.99;43.99
77727;SHT30;66894;51.570;7.000;2023-02-28T16:22:24;19.92;44.41
77727;SHT30;66894;51.570;7.000;2023-02-28T16:24:50;19.91;44.32
77727;SHT30;66894;51.570;7.000;2023-02-28T16:27:27;19.91;44.61
77727;SHT30;66894;51.570;7.000;2023-02-28T16:30:02;19.78;40.28
77727;SHT30;66894;51.570;7.000;2023-02-28T17:07:52;14.25;32.24
77727;SHT30;66894;51.570;7.000;2023-02-28T17:10:25;11.06;38.19
77727;SHT30;66894;51.570;7.000;2023-02-28T17:12:52;8.62;42.76
77727;SHT30;66894;51.570;7.000;2023-02-28T17:15:23;7.40;52.31
77727;SHT30;66894;51.570;7.000;2023-02-28T17:17:49;6.88;55.88
77727;SHT30;66894;51.570;7.000;2023-02-28T17:20:21;5.69;55.03
77727;SHT30;66894;51.570;7.000;2023-02-28T17:22:51;4.68;56.57
77727;SHT30;66894;51.570;7.000;2023-02-28T18:20:39;0.49;74.86
77727;SHT30;66894;51.570;7.000;2023-02-28T18:23:05;0.33;75.55
77727;SHT30;66894;51.570;7.000;2023-02-28T18:25:31;0.19;76.92
77727;SHT30;66894;51.570;7.000;2023-02-28T18:27:57;0.05;77.36
77727;SHT30;66894;51.570;7.000;2023-02-28T18:30:29;0.02;77.38
77727;SHT30;66894;51.570;7.000;2023-02-28T18:32:59;0.07;76.29
77727;SHT30;66894;51.570;7.000;2023-02-28T18:35:29;0.07;75.44
77727;SHT30;66894;51.570;7.000;2023-02-28T18:38:16;0.02;76.29
77727;SHT30;66894;51.570;7.000;2023-02-28T18:40:56;-0.08;76.83
77727;SHT30;66894;51.570;7.000;2023-02-28T18:43:31;-0.19;76.94
77727;SHT30;66894;51.570;7.000;2023-02-28T18:46:04;-0.19;77.84
77727;SHT30;66894;51.570;7.000;2023-02-28T18:48:31;-0.19;77.64
77727;SHT30;66894;51.570;7.000;2023-02-28T18:50:57;-0.23;77.91
77727;SHT30;66894;51.570;7.000;2023-02-28T18:53:22;-0.32;78.20
77727;SHT30;66894;51.570;7.000;2023-02-28T18:55:48;-0.45;78.77
77727;SHT30;66894;51.570;7.000;2023-02-28T18:58:14;-0.52;79.33
77727;SHT30;66894;51.570;7.000;2023-02-28T19:00:40;-0.59;79.96
77727;SHT30;66894;51.570;7.000;2023-02-28T19:03:05;-0.60;79.79
77727;SHT30;66894;51.570;7.000;2023-02-28T19:05:31;-0.66;80.35
77727;SHT30;66894;51.570;7.000;2023-02-28T19:08:00;-0.67;80.48
77727;SHT30;66894;51.570;7.000;2023-02-28T19:10:26;-0.74;80.48
77727;SHT30;66894;51.570;7.000;2023-02-28T19:12:52;-0.77;80.90
77727;SHT30;66894;51.570;7.000;2023-02-28T19:15:18;-0.84;81.56
77727;SHT30;66894;51.570;7.000;2023-02-28T19:17:44;-0.93;82.47
77727;SHT30;66894;51.570;7.000;2023-02-28T19:20:11;-0.93;84.28
77727;SHT30;66894;51.570;7.000;2023-02-28T19:22:37;-0.95;85.43
77727;SHT30;66894;51.570;7.000;2023-02-28T19:25:05;-0.97;86.32
77727;SHT30;66894;51.570;7.000;2023-02-28T19:27:31;-0.98;86.91
77727;SHT30;66894;51.570;7.000;2023-02-28T19:30:00;-1.04;87.20
77727;SHT30;66894;51.570;7.000;2023-02-28T19:32:26;-1.05;86.97
77727;SHT30;66894;51.570;7.000;2023-02-28T19:34:51;-1.12;86.05
77727;SHT30;66894;51.570;7.000;2023-02-28T19:37:17;-1.08;84.77
77727;SHT30;66894;51.570;7.000;2023-02-28T19:39:43;-1.05;83.91
77727;SHT30;66894;51.570;7.000;2023-02-28T19:42:15;-1.08;83.93
77727;SHT30;66894;51.570;7.000;2023-02-28T19:44:43;-1.12;83.32
77727;SHT30;66894;51.570;7.000;2023-02-28T19:47:12;-1.14;82.92
77727;SHT30;66894;51.570;7.000;2023-02-28T19:49:38;-1.17;82.91
77727;SHT30;66894;51.570;7.000;2023-02-28T19:52:05;-1.18;83.04
77727;SHT30;66894;51.570;7.000;2023-02-28T19:54:31;-1.27;83.21
77727;SHT30;66894;51.570;7.000;2023-02-28T19:56:59;-1.31;83.55
77727;SHT30;66894;51.570;7.000;2023-02-28T19:59:27;-1.36;83.85
77727;SHT30;66894;51.570;7.000;2023-02-28T20:01:53;-1.36;84.12
77727;SHT30;66894;51.570;7.000;2023-02-28T20:04:25;-1.36;83.87
77727;SHT30;66894;51.570;7.000;2023-02-28T20:06:52;-1.41;83.96
77727;SHT30;66894;51.570;7.000;2023-02-28T20:09:18;-1.44;84.20
77727;SHT30;66894;51.570;7.000;2023-02-28T20:11:45;-1.44;84.26
77727;SHT30;66894;51.570;7.000;2023-02-28T20:14:12;-1.49;84.66
77727;SHT30;66894;51.570;7.000;2023-02-28T20:16:40;-1.55;84.89
77727;SHT30;66894;51.570;7.000;2023-02-28T20:19:05;-1.62;85.14
77727;SHT30;66894;51.570;7.000;2023-02-28T20:21:31;-1.59;85.96
77727;SHT30;66894;51.570;7.000;2023-02-28T20:23:57;-1.58;85.62
77727;SHT30;66894;51.570;7.000;2023-02-28T20:26:22;-1.66;85.45
77727;SHT30;66894;51.570;7.000;2023-02-28T20:28:48;-1.69;85.96
77727;SHT30;66894;51.570;7.000;2023-02-28T20:31:19;-1.72;86.44
77727;SHT30;66894;51.570;7.000;2023-02-28T20:33:49;-1.73;85.95
77727;SHT30;66894;51.570;7.000;2023-02-28T20:36:17;-1.77;85.67
77727;SHT30;66894;51.570;7.000;2023-02-28T20:38:49;-1.76;85.50
77727;SHT30;66894;51.570;7.000;2023-02-28T20:41:16;-1.77;85.49
77727;SHT30;66894;51.570;7.000;2023-02-28T20:43:42;-1.80;85.38
77727;SHT30;66894;51.570;7.000;2023-02-28T20:46:08;-1.83;85.81
77727;SHT30;66894;51.570;7.000;2023-02-28T20:48:35;-1.89;85.89
77727;SHT30;66894;51.570;7.000;2023-02-28T20:51:02;-1.94;87.11
77727;SHT30;66894;51.570;7.000;2023-02-28T20:53:31;-1.91;88.11
77727;SHT30;66894;51.570;7.000;2023-02-28T20:56:00;-1.93;88.24
77727;SHT30;66894;51.570;7.000;2023-02-28T20:58:31;-1.91;88.08
77727;SHT30;66894;51.570;7.000;2023-02-28T21:03:49;-1.93;87.04
77727;SHT30;66894;51.570;7.000;2023-02-28T21:06:20;-1.93;87.43
77727;SHT30;66894;51.570;7.000;2023-02-28T21:08:48;-2.01;87.91
77727;SHT30;66894;51.570;7.000;2023-02-28T21:11:21;-2.01;88.08
77727;SHT30;66894;51.570;7.000;2023-02-28T21:13:57;-2.01;88.15
77727;SHT30;66894;51.570;7.000;2023-02-28T21:16:25;-2.00;87.83
77727;SHT30;66894;51.570;7.000;2023-02-28T21:18:53;-2.00;87.61
77727;SHT30;66894;51.570;7.000;2023-02-28T21:21:23;-2.01;87.51
77727;SHT30;66894;51.570;7.000;2023-02-28T21:23:50;-2.04;87.37
77727;SHT30;66894;51.570;7.000;2023-02-28T21:26:20;-2.08;87.42
77727;SHT30;66894;51.570;7.000;2023-02-28T21:28:58;-2.08;87.54
77727;SHT30;66894;51.570;7.000;2023-02-28T21:31:28;-2.14;87.67
77727;SHT30;66894;51.570;7.000;2023-02-28T21:33:57;-2.10;88.36
77727;SHT30;66894;51.570;7.000;2023-02-28T21:36:27;-2.10;88.05
77727;SHT30;66894;51.570;7.000;2023-02-28T21:39:01;-2.11;88.16
77727;SHT30;66894;51.570;7.000;2023-02-28T21:41:29;-2.10;88.48
77727;SHT30;66894;51.570;7.000;2023-02-28T21:43:56;-2.14;88.21
77727;SHT30;66894;51.570;7.000;2023-02-28T21:46:26;-2.17;88.19
77727;SHT30;66894;51.570;7.000;2023-02-28T21:48:54;-2.21;88.29
77727;SHT30;66894;51.570;7.000;2023-02-28T21:51:29;-2.24;88.36
77727;SHT30;66894;51.570;7.000;2023-02-28T21:53:59;-2.28;88.23
77727;SHT30;66894;51.570;7.000;2023-02-28T21:56:31;-2.33;88.15
77727;SHT30;66894;51.570;7.000;2023-02-28T21:58:59;-2.38;88.47
77727;SHT30;66894;51.570;7.000;2023-02-28T22:01:32;-2.40;88.51
77727;SHT30;66894;51.570;7.000;2023-02-28T22:04:02;-2.40;88.72
77727;SHT30;66894;51.570;7.000;2023-02-28T22:06:32;-2.41;88.92
77727;SHT30;66894;51.570;7.000;2023-02-28T22:09:03;-2.44;89.11
77727;SHT30;66894;51.570;7.000;2023-02-28T22:11:33;-2.41;88.99
77727;SHT30;66894;51.570;7.000;2023-02-28T22:14:00;-2.44;88.97
77727;SHT30;66894;51.570;7.000;2023-02-28T22:16:29;-2.44;89.08
77727;SHT30;66894;51.570;7.000;2023-02-28T22:18:56;-2.45;88.95
77727;SHT30;66894;51.570;7.000;2023-02-28T22:21:23;-2.45;88.95
77727;SHT30;66894;51.570;7.000;2023-02-28T22:23:49;-2.51;89.16
77727;SHT30;66894;51.570;7.000;2023-02-28T22:26:19;-2.52;89.30
77727;SHT30;66894;51.570;7.000;2023-02-28T22:28:47;-2.58;89.39
77727;SHT30;66894;51.570;7.000;2023-02-28T22:31:16;-2.55;89.20
77727;SHT30;66894;51.570;7.000;2023-02-28T22:34:06;-2.58;89.23
77727;SHT30;66894;51.570;7.000;2023-02-28T22:36:33;-2.61;89.34
77727;SHT30;66894;51.570;7.000;2023-02-28T22:39:00;-2.61;89.30
77727;SHT30;66894;51.570;7.000;2023-02-28T22:41:27;-2.66;89.27
77727;SHT30;66894;51.570;7.000;2023-02-28T22:44:00;-2.68;89.39
77727;SHT30;66894;51.570;7.000;2023-02-28T22:46:30;-2.63;89.46
77727;SHT30;66894;51.570;7.000;2023-02-28T22:48:59;-2.61;89.46
77727;SHT30;66894;51.570;7.000;2023-02-28T22:51:26;-2.61;89.55
77727;SHT30;66894;51.570;7.000;2023-02-28T22:53:54;-2.63;89.65
77727;SHT30;66894;51.570;7.000;2023-02-28T22:56:23;-2.66;89.55
77727;SHT30;66894;51.570;7.000;2023-02-28T22:58:57;-2.73;89.58
77727;SHT30;66894;51.570;7.000;2023-02-28T23:01:28;-2.72;89.78
77727;SHT30;66894;51.570;7.000;2023-02-28T23:03:56;-2.75;90.22
77727;SHT30;66894;51.570;7.000;2023-02-28T23:06:24;-2.79;90.43
77727;SHT30;66894;51.570;7.000;2023-02-28T23:08:57;-2.79;90.72
77727;SHT30;66894;51.570;7.000;2023-02-28T23:11:31;-2.77;90.29
77727;SHT30;66894;51.570;7.000;2023-02-28T23:13:59;-2.76;90.18
77727;SHT30;66894;51.570;7.000;2023-02-28T23:19:06;-2.83;90.11
77727;SHT30;66894;51.570;7.000;2023-02-28T23:21:34;-2.92;90.21
77727;SHT30;66894;51.570;7.000;2023-02-28T23:24:03;-2.92;90.19
77727;SHT30;66894;51.570;7.000;2023-02-28T23:26:31;-2.92;90.18
77727;SHT30;66894;51.570;7.000;2023-02-28T23:28:57;-2.93;90.26
77727;SHT30;66894;51.570;7.000;2023-02-28T23:31:23;-2.96;90.46
77727;SHT30;66894;51.570;7.000;2023-02-28T23:33:49;-2.97;90.47
77727;SHT30;66894;51.570;7.000;2023-02-28T23:36:16;-2.94;90.31
77727;SHT30;66894;51.570;7.000;2023-02-28T23:38:47;-2.96;90.16
77727;SHT30;66894;51.570;7.000;2023-02-28T23:41:14;-2.97;90.15
77727;SHT30;66894;51.570;7.000;2023-02-28T23:43:41;-3.01;90.24
77727;SHT30;66894;51.570;7.000;2023-02-28T23:46:09;-3.03;90.11
77727;SHT30;66894;51.570;7.000;2023-02-28T23:48:36;-2.94;90.26
77727;SHT30;66894;51.570;7.000;2023-02-28T23:51:12;-2.94;90.23
77727;SHT30;66894;51.570;7.000;2023-02-28T23:53:44;-2.97;90.08
77727;SHT30;66894;51.570;7.000;2023-02-28T23:56:15;-3.03;90.16
77727;SHT30;66894;51.570;7.000;2023-02-28T23:58:44;-3.08;90.16
